createdAt,value
2018-06-12T00:00:31.962Z,20.84
2018-06-12T00:01:12.523Z,20.84
2018-06-12T00:01:53.080Z,20.84
2018-06-12T00:02:33.645Z,20.81
2018-06-12T00:03:14.196Z,20.81
2018-06-12T00:03:54.761Z,20.8
2018-06-12T00:04:35.333Z,20.81
2018-06-12T00:05:15.946Z,20.74
2018-06-12T00:05:56.528Z,20.8
2018-06-12T00:06:37.079Z,20.75
2018-06-12T00:07:17.677Z,20.82
2018-06-12T00:07:58.228Z,20.7
2018-06-12T00:08:38.791Z,20.74
2018-06-12T00:09:19.370Z,20.78
2018-06-12T00:09:59.937Z,20.72
2018-06-12T00:10:40.501Z,20.74
2018-06-12T00:11:21.066Z,20.75
2018-06-12T00:12:01.629Z,20.74
2018-06-12T00:12:42.188Z,20.7
2018-06-12T00:13:22.763Z,20.66
2018-06-12T00:14:03.338Z,20.72
2018-06-12T00:14:43.941Z,20.69
2018-06-12T00:15:24.512Z,20.66
2018-06-12T00:16:05.101Z,20.69
2018-06-12T00:16:45.669Z,20.69
2018-06-12T00:17:26.241Z,20.63
2018-06-12T00:18:06.791Z,20.69
2018-06-12T00:18:47.327Z,20.6
2018-06-12T00:19:27.887Z,20.63
2018-06-12T00:20:08.438Z,20.62
2018-06-12T00:20:48.977Z,20.63
2018-06-12T00:21:29.531Z,20.6
2018-06-12T00:22:10.099Z,20.65
2018-06-12T00:22:50.668Z,20.62
2018-06-12T00:23:31.254Z,20.44
2018-06-12T00:24:11.835Z,20.56
2018-06-12T00:24:52.401Z,20.56
2018-06-12T00:25:32.950Z,20.43
2018-06-12T00:26:13.549Z,20.51
2018-06-12T00:26:54.156Z,20.51
2018-06-12T00:27:34.704Z,20.48
2018-06-12T00:28:15.256Z,20.43
2018-06-12T00:28:55.812Z,20.5
2018-06-12T00:29:36.385Z,20.41
2018-06-12T00:30:16.943Z,20.43
2018-06-12T00:30:57.510Z,20.41
2018-06-12T00:31:38.073Z,20.43
2018-06-12T00:32:18.639Z,20.39
2018-06-12T00:32:59.242Z,20.31
2018-06-12T00:33:39.812Z,20.29
2018-06-12T00:34:20.396Z,20.31
2018-06-12T00:35:03.801Z,20.22
2018-06-12T00:35:44.331Z,20.36
2018-06-12T00:36:24.905Z,20.29
2018-06-12T00:37:05.463Z,20.29
2018-06-12T00:37:46.046Z,20.31
2018-06-12T00:38:26.590Z,20.29
2018-06-12T00:39:07.136Z,20.26
2018-06-12T00:39:47.702Z,20.25
2018-06-12T00:40:28.242Z,20.16
2018-06-12T00:41:08.812Z,20.32
2018-06-12T00:41:49.403Z,20.24
2018-06-12T00:42:29.964Z,20.14
2018-06-12T00:43:10.528Z,20.31
2018-06-12T00:43:51.786Z,20.21
2018-06-12T00:44:32.337Z,20.13
2018-06-12T00:45:12.905Z,20.1
2018-06-12T00:45:53.456Z,20.18
2018-06-12T00:46:34.008Z,20.13
2018-06-12T00:47:14.587Z,20.13
2018-06-12T00:47:55.151Z,20.13
2018-06-12T00:48:35.703Z,20.14
2018-06-12T00:49:16.272Z,20.09
2018-06-12T00:49:56.842Z,20.1
2018-06-12T00:50:37.395Z,20.14
2018-06-12T00:51:17.973Z,20.1
2018-06-12T00:51:58.515Z,20.09
2018-06-12T00:52:39.057Z,20.1
2018-06-12T00:53:19.618Z,20.14
2018-06-12T00:54:00.177Z,20.07
2018-06-12T00:54:40.727Z,20.07
2018-06-12T00:55:21.287Z,20.06
2018-06-12T00:56:01.848Z,20
2018-06-12T00:56:42.401Z,20.04
2018-06-12T00:57:22.969Z,20
2018-06-12T00:58:03.524Z,20.04
2018-06-12T00:58:44.132Z,19.99
2018-06-12T00:59:24.657Z,19.92
2018-06-12T01:00:05.225Z,20
2018-06-12T01:00:45.771Z,20.04
2018-06-12T01:01:26.332Z,19.92
2018-06-12T01:02:06.878Z,19.88
2018-06-12T01:02:47.454Z,19.88
2018-06-12T01:03:28.005Z,19.99
2018-06-12T01:04:08.562Z,19.92
2018-06-12T01:04:49.139Z,19.92
2018-06-12T01:05:29.684Z,19.76
2018-06-12T01:06:10.236Z,19.89
2018-06-12T01:06:50.798Z,19.85
2018-06-12T01:07:31.364Z,19.86
2018-06-12T01:08:11.927Z,19.79
2018-06-12T01:08:52.488Z,19.76
2018-06-12T01:09:33.045Z,19.69
2018-06-12T01:10:13.598Z,19.84
2018-06-12T01:10:54.172Z,19.74
2018-06-12T01:11:34.729Z,19.85
2018-06-12T01:12:15.310Z,19.82
2018-06-12T01:12:55.870Z,19.7
2018-06-12T01:13:36.434Z,19.84
2018-06-12T01:14:16.998Z,19.77
2018-06-12T01:14:57.553Z,19.77
2018-06-12T01:15:38.102Z,19.76
2018-06-12T01:16:18.651Z,19.82
2018-06-12T01:16:59.227Z,19.76
2018-06-12T01:17:39.791Z,19.71
2018-06-12T01:18:20.368Z,19.71
2018-06-12T01:19:00.939Z,19.64
2018-06-12T01:19:41.500Z,19.69
2018-06-12T01:20:22.051Z,19.7
2018-06-12T01:21:02.609Z,19.63
2018-06-12T01:21:43.161Z,19.77
2018-06-12T01:22:23.710Z,19.7
2018-06-12T01:23:04.294Z,19.64
2018-06-12T01:23:44.847Z,19.74
2018-06-12T01:24:25.392Z,19.73
2018-06-12T01:25:05.979Z,19.63
2018-06-12T01:25:46.539Z,19.69
2018-06-12T01:26:27.092Z,19.76
2018-06-12T01:27:07.639Z,19.69
2018-06-12T01:27:48.204Z,19.67
2018-06-12T01:28:28.764Z,19.69
2018-06-12T01:29:09.314Z,19.7
2018-06-12T01:29:49.899Z,19.74
2018-06-12T01:30:30.467Z,19.66
2018-06-12T01:31:11.034Z,19.67
2018-06-12T01:31:51.587Z,19.66
2018-06-12T01:32:32.160Z,19.66
2018-06-12T01:33:12.722Z,19.67
2018-06-12T01:33:53.274Z,19.62
2018-06-12T01:34:33.820Z,19.63
2018-06-12T01:35:14.423Z,19.62
2018-06-12T01:35:54.984Z,19.62
2018-06-12T01:36:35.558Z,19.58
2018-06-12T01:37:16.129Z,19.55
2018-06-12T01:37:56.678Z,19.55
2018-06-12T01:38:37.230Z,19.47
2018-06-12T01:39:17.783Z,19.58
2018-06-12T01:39:58.362Z,19.51
2018-06-12T01:40:38.975Z,19.45
2018-06-12T01:41:19.564Z,19.49
2018-06-12T01:42:00.106Z,19.39
2018-06-12T01:42:40.638Z,19.49
2018-06-12T01:43:21.219Z,19.39
2018-06-12T01:44:01.781Z,19.4
2018-06-12T01:44:42.341Z,19.44
2018-06-12T01:45:22.890Z,19.33
2018-06-12T01:46:03.454Z,19.41
2018-06-12T01:46:44.023Z,19.47
2018-06-12T01:47:24.630Z,19.36
2018-06-12T01:48:05.197Z,19.4
2018-06-12T01:48:45.750Z,19.3
2018-06-12T01:49:26.314Z,19.41
2018-06-12T01:50:06.880Z,19.31
2018-06-12T01:50:47.420Z,19.4
2018-06-12T01:51:27.988Z,19.4
2018-06-12T01:52:08.543Z,19.37
2018-06-12T01:52:49.097Z,19.24
2018-06-12T01:53:29.698Z,19.36
2018-06-12T01:54:10.782Z,19.29
2018-06-12T01:54:51.691Z,19.3
2018-06-12T01:55:32.639Z,19.27
2018-06-12T01:56:13.210Z,19.36
2018-06-12T01:56:53.795Z,19.31
2018-06-12T01:57:34.409Z,19.3
2018-06-12T01:58:14.962Z,19.29
2018-06-12T01:58:55.542Z,19.29
2018-06-12T01:59:36.102Z,19.27
2018-06-12T02:00:16.684Z,19.29
2018-06-12T02:00:57.244Z,19.26
2018-06-12T02:01:37.803Z,19.29
2018-06-12T02:02:18.369Z,19.21
2018-06-12T02:02:58.941Z,19.24
2018-06-12T02:03:39.521Z,19.22
2018-06-12T02:04:20.071Z,19.14
2018-06-12T02:05:00.622Z,19.14
2018-06-12T02:05:41.206Z,19.15
2018-06-12T02:06:21.775Z,19.15
2018-06-12T02:07:02.354Z,19.04
2018-06-12T02:07:42.919Z,19.11
2018-06-12T02:08:23.471Z,19.11
2018-06-12T02:09:04.021Z,19.07
2018-06-12T02:14:21.409Z,18.99
2018-06-12T02:15:01.972Z,19.02
2018-06-12T02:15:42.536Z,18.99
2018-06-12T02:16:23.101Z,18.89
2018-06-12T02:17:03.644Z,18.89
2018-06-12T02:17:44.197Z,18.9
2018-06-12T02:18:24.746Z,18.95
2018-06-12T02:19:05.329Z,18.84
2018-06-12T02:19:45.983Z,18.8
2018-06-12T02:20:26.560Z,18.93
2018-06-12T02:21:07.122Z,18.93
2018-06-12T02:21:47.687Z,18.88
2018-06-12T02:22:28.256Z,18.89
2018-06-12T02:23:08.804Z,18.86
2018-06-12T02:23:49.352Z,18.84
2018-06-12T02:24:29.910Z,18.9
2018-06-12T02:25:10.476Z,18.75
2018-06-12T02:25:51.027Z,18.88
2018-06-12T02:26:31.585Z,18.78
2018-06-12T02:27:12.125Z,18.88
2018-06-12T02:27:52.669Z,18.8
2018-06-12T02:28:33.255Z,18.83
2018-06-12T02:29:13.822Z,18.81
2018-06-12T02:29:54.361Z,18.71
2018-06-12T02:30:34.914Z,18.81
2018-06-12T02:31:15.465Z,18.77
2018-06-12T02:31:56.040Z,18.77
2018-06-12T02:32:36.693Z,18.7
2018-06-12T02:33:17.249Z,18.65
2018-06-12T02:33:57.820Z,18.63
2018-06-12T02:34:38.367Z,18.63
2018-06-12T02:35:18.918Z,18.59
2018-06-12T02:35:59.487Z,18.6
2018-06-12T02:36:40.056Z,18.58
2018-06-12T02:37:20.599Z,18.62
2018-06-12T02:38:01.164Z,18.49
2018-06-12T02:38:41.757Z,18.58
2018-06-12T02:39:22.299Z,18.49
2018-06-12T02:40:02.875Z,18.53
2018-06-12T02:40:43.428Z,18.49
2018-06-12T02:41:24.023Z,18.47
2018-06-12T02:42:04.553Z,18.47
2018-06-12T02:42:45.110Z,18.41
2018-06-12T02:43:25.659Z,18.45
2018-06-12T02:44:06.222Z,18.37
2018-06-12T02:44:46.822Z,18.38
2018-06-12T02:45:27.387Z,18.43
2018-06-12T02:46:07.931Z,18.44
2018-06-12T02:46:48.489Z,18.44
2018-06-12T02:47:29.051Z,18.45
2018-06-12T02:48:09.616Z,18.47
2018-06-12T02:48:50.154Z,18.37
2018-06-12T02:49:30.707Z,18.45
2018-06-12T02:50:11.239Z,18.45
2018-06-12T02:50:51.819Z,18.43
2018-06-12T02:51:32.369Z,18.44
2018-06-12T02:52:12.931Z,18.37
2018-06-12T02:52:53.513Z,18.47
2018-06-12T02:53:34.061Z,18.49
2018-06-12T02:54:14.676Z,18.41
2018-06-12T02:54:55.248Z,18.45
2018-06-12T02:55:35.800Z,18.44
2018-06-12T02:56:16.389Z,18.44
2018-06-12T02:56:56.954Z,18.45
2018-06-12T02:57:37.498Z,18.44
2018-06-12T02:58:18.065Z,18.45
2018-06-12T02:58:58.601Z,18.52
2018-06-12T02:59:39.230Z,18.43
2018-06-12T03:00:19.803Z,18.47
2018-06-12T03:01:00.354Z,18.43
2018-06-12T03:01:40.907Z,18.45
2018-06-12T03:02:21.471Z,18.44
2018-06-12T03:03:02.022Z,18.43
2018-06-12T03:03:42.587Z,18.45
2018-06-12T03:04:23.129Z,18.43
2018-06-12T03:05:03.684Z,18.38
2018-06-12T03:05:44.235Z,18.49
2018-06-12T03:06:24.815Z,18.4
2018-06-12T03:07:05.347Z,18.41
2018-06-12T03:07:45.904Z,18.43
2018-06-12T03:08:26.475Z,18.41
2018-06-12T03:09:07.036Z,18.41
2018-06-12T03:09:47.623Z,18.45
2018-06-12T03:10:28.183Z,18.5
2018-06-12T03:11:08.745Z,18.4
2018-06-12T03:11:49.295Z,18.38
2018-06-12T03:12:29.876Z,18.41
2018-06-12T03:13:10.418Z,18.44
2018-06-12T03:13:50.991Z,18.45
2018-06-12T03:14:31.575Z,18.45
2018-06-12T03:15:12.071Z,18.41
2018-06-12T03:15:52.630Z,18.49
2018-06-12T03:16:33.196Z,18.38
2018-06-12T03:17:13.754Z,18.41
2018-06-12T03:17:54.328Z,18.43
2018-06-12T03:18:34.898Z,18.38
2018-06-12T03:19:15.453Z,18.49
2018-06-12T03:19:56.011Z,18.33
2018-06-12T03:20:36.584Z,18.35
2018-06-12T03:21:17.144Z,18.37
2018-06-12T03:21:57.714Z,18.41
2018-06-12T03:22:38.287Z,18.45
2018-06-12T03:23:18.861Z,18.44
2018-06-12T03:23:59.395Z,18.45
2018-06-12T03:24:39.970Z,18.45
2018-06-12T03:25:20.562Z,18.44
2018-06-12T03:26:01.120Z,18.5
2018-06-12T03:26:41.684Z,18.45
2018-06-12T03:27:22.232Z,18.38
2018-06-12T03:28:02.784Z,18.38
2018-06-12T03:28:43.342Z,18.47
2018-06-12T03:29:23.917Z,18.37
2018-06-12T03:30:04.460Z,18.29
2018-06-12T03:30:45.036Z,18.25
2018-06-12T03:31:25.595Z,18.34
2018-06-12T03:32:06.152Z,18.28
2018-06-12T03:32:46.720Z,18.25
2018-06-12T03:33:27.270Z,18.26
2018-06-12T03:34:07.843Z,18.28
2018-06-12T03:34:48.423Z,18.26
2018-06-12T03:35:28.973Z,18.33
2018-06-12T03:36:09.526Z,18.33
2018-06-12T03:36:50.072Z,18.29
2018-06-12T03:37:30.629Z,18.25
2018-06-12T03:38:11.202Z,18.31
2018-06-12T03:38:51.953Z,18.33
2018-06-12T03:39:32.512Z,18.33
2018-06-12T03:40:13.072Z,18.33
2018-06-12T03:40:53.638Z,18.31
2018-06-12T03:41:34.201Z,18.37
2018-06-12T03:42:14.763Z,18.31
2018-06-12T03:42:55.321Z,18.26
2018-06-12T03:43:35.886Z,18.33
2018-06-12T03:44:16.486Z,18.35
2018-06-12T03:44:57.034Z,18.31
2018-06-12T03:45:37.596Z,18.28
2018-06-12T03:46:18.161Z,18.28
2018-06-12T03:46:58.740Z,18.35
2018-06-12T03:47:39.287Z,18.26
2018-06-12T03:48:19.865Z,18.33
2018-06-12T03:49:00.385Z,18.23
2018-06-12T03:49:40.948Z,18.28
2018-06-12T03:50:21.508Z,18.23
2018-06-12T03:51:02.066Z,18.23
2018-06-12T03:51:42.619Z,18.28
2018-06-12T03:52:23.188Z,18.25
2018-06-12T03:53:03.726Z,18.22
2018-06-12T03:53:44.307Z,18.19
2018-06-12T03:54:25.279Z,18.16
2018-06-12T03:55:06.667Z,18.19
2018-06-12T03:55:47.515Z,18.15
2018-06-12T03:56:28.367Z,18.19
2018-06-12T03:57:09.060Z,18.15
2018-06-12T03:57:49.791Z,18.18
2018-06-12T03:58:30.522Z,18.16
2018-06-12T03:59:11.426Z,18.22
2018-06-12T03:59:51.984Z,18.19
2018-06-12T04:00:32.567Z,18.16
2018-06-12T04:01:13.135Z,18.13
2018-06-12T04:01:53.799Z,18.11
2018-06-12T04:02:34.378Z,18.18
2018-06-12T04:03:15.024Z,18.07
2018-06-12T04:03:55.600Z,18.13
2018-06-12T04:04:36.356Z,18.15
2018-06-12T04:05:16.916Z,18.15
2018-06-12T04:05:57.478Z,18.1
2018-06-12T04:06:38.933Z,18.08
2018-06-12T04:07:19.623Z,18.01
2018-06-12T04:08:01.066Z,18.04
2018-06-12T04:08:41.974Z,18.05
2018-06-12T04:09:22.638Z,18.07
2018-06-12T04:10:03.417Z,18.05
2018-06-12T04:10:44.107Z,18.16
2018-06-12T04:11:24.974Z,18.13
2018-06-12T04:12:05.800Z,18.1
2018-06-12T04:12:46.672Z,18.11
2018-06-12T04:13:27.416Z,18.11
2018-06-12T04:14:07.982Z,18.11
2018-06-12T04:14:48.847Z,18.1
2018-06-12T04:15:29.401Z,18.07
2018-06-12T04:16:12.412Z,18
2018-06-12T04:16:53.296Z,18.08
2018-06-12T04:17:34.021Z,18.04
2018-06-12T04:18:15.642Z,18
2018-06-12T04:18:56.373Z,18.04
2018-06-12T04:19:37.474Z,18.05
2018-06-12T04:20:18.504Z,18.03
2018-06-12T04:20:59.511Z,17.98
2018-06-12T04:21:40.115Z,18.01
2018-06-12T04:22:20.795Z,18
2018-06-12T04:23:01.629Z,18.04
2018-06-12T04:23:42.600Z,18.03
2018-06-12T04:24:23.441Z,18.03
2018-06-12T04:25:04.305Z,18.04
2018-06-12T04:25:45.130Z,18.03
2018-06-12T04:26:25.744Z,18.1
2018-06-12T04:27:06.912Z,18.15
2018-06-12T04:27:47.764Z,18.19
2018-06-12T04:28:29.022Z,18.23
2018-06-12T04:29:10.309Z,18.33
2018-06-12T04:29:51.887Z,18.31
2018-06-12T04:30:33.415Z,18.41
2018-06-12T04:31:14.178Z,18.4
2018-06-12T04:31:55.125Z,18.58
2018-06-12T04:32:36.263Z,18.63
2018-06-12T04:33:17.423Z,18.73
2018-06-12T04:33:58.406Z,18.7
2018-06-12T04:34:39.216Z,18.63
2018-06-12T04:35:20.395Z,18.68
2018-06-12T04:36:02.559Z,18.68
2018-06-12T04:36:43.484Z,18.75
2018-06-12T04:37:25.055Z,18.75
2018-06-12T04:38:05.805Z,18.83
2018-06-12T04:38:46.450Z,18.8
2018-06-12T04:39:27.099Z,18.88
2018-06-12T04:40:07.661Z,18.78
2018-06-12T04:40:48.678Z,18.8
2018-06-12T04:41:29.564Z,18.8
2018-06-12T04:42:10.490Z,18.75
2018-06-12T04:42:51.365Z,18.84
2018-06-12T04:43:32.164Z,18.83
2018-06-12T04:44:13.054Z,18.77
2018-06-12T04:44:54.779Z,18.8
2018-06-12T04:45:35.771Z,18.8
2018-06-12T04:46:16.423Z,18.78
2018-06-12T04:46:56.983Z,18.88
2018-06-12T04:47:37.547Z,18.81
2018-06-12T04:48:18.118Z,18.88
2018-06-12T04:48:58.683Z,18.81
2018-06-12T04:49:39.243Z,18.88
2018-06-12T04:50:19.838Z,18.81
2018-06-12T04:51:00.456Z,18.83
2018-06-12T04:51:41.007Z,18.81
2018-06-12T04:52:21.675Z,18.75
2018-06-12T04:53:02.237Z,18.75
2018-06-12T04:53:42.800Z,18.78
2018-06-12T04:54:23.379Z,18.83
2018-06-12T04:55:03.986Z,18.84
2018-06-12T04:55:44.572Z,18.8
2018-06-12T04:56:25.111Z,18.74
2018-06-12T04:57:05.697Z,18.73
2018-06-12T04:57:46.264Z,18.74
2018-06-12T04:58:26.851Z,18.68
2018-06-12T04:59:07.422Z,18.68
2018-06-12T04:59:47.988Z,18.63
2018-06-12T05:00:28.552Z,18.63
2018-06-12T05:01:09.119Z,18.63
2018-06-12T05:01:49.688Z,18.7
2018-06-12T05:02:30.264Z,18.74
2018-06-12T05:03:10.801Z,18.7
2018-06-12T05:03:51.347Z,18.71
2018-06-12T05:04:31.930Z,18.65
2018-06-12T05:05:12.481Z,18.59
2018-06-12T05:05:53.036Z,18.55
2018-06-12T05:06:33.579Z,18.44
2018-06-12T05:07:14.127Z,18.44
2018-06-12T05:07:54.701Z,18.37
2018-06-12T05:08:35.257Z,18.43
2018-06-12T05:09:15.810Z,18.49
2018-06-12T05:09:56.374Z,18.31
2018-06-12T05:10:37.001Z,18.37
2018-06-12T05:11:17.512Z,18.33
2018-06-12T05:11:58.076Z,18.23
2018-06-12T05:12:38.662Z,18.37
2018-06-12T05:13:19.236Z,18.29
2018-06-12T05:13:59.817Z,18.26
2018-06-12T05:14:40.388Z,18.4
2018-06-12T05:15:20.952Z,18.35
2018-06-12T05:16:01.528Z,18.45
2018-06-12T05:16:42.228Z,18.47
2018-06-12T05:19:01.625Z,18.68
2018-06-12T05:19:42.257Z,18.74
2018-06-12T05:20:22.770Z,18.74
2018-06-12T05:21:03.346Z,18.7
2018-06-12T05:21:43.940Z,18.77
2018-06-12T05:22:24.496Z,18.75
2018-06-12T05:23:05.045Z,18.83
2018-06-12T05:23:45.597Z,18.84
2018-06-12T05:24:26.176Z,18.83
2018-06-12T05:25:06.707Z,18.9
2018-06-12T05:25:47.256Z,18.89
2018-06-12T05:26:27.851Z,18.98
2018-06-12T05:27:08.414Z,18.96
2018-06-12T05:27:48.981Z,18.99
2018-06-12T05:28:29.576Z,19.02
2018-06-12T05:29:10.156Z,19
2018-06-12T05:29:50.739Z,18.93
2018-06-12T05:30:31.299Z,18.89
2018-06-12T05:31:11.840Z,18.88
2018-06-12T05:31:52.407Z,18.86
2018-06-12T05:32:32.986Z,18.78
2018-06-12T05:33:13.571Z,18.74
2018-06-12T05:33:54.118Z,18.65
2018-06-12T05:34:34.693Z,18.7
2018-06-12T05:35:15.363Z,18.73
2018-06-12T05:35:55.952Z,18.8
2018-06-12T05:36:36.525Z,18.84
2018-06-12T05:37:17.058Z,18.88
2018-06-12T05:37:57.643Z,18.9
2018-06-12T05:38:38.196Z,18.81
2018-06-12T05:39:18.787Z,18.7
2018-06-12T05:39:59.378Z,18.66
2018-06-12T05:40:39.946Z,18.59
2018-06-12T05:41:20.513Z,18.55
2018-06-12T05:42:01.140Z,18.49
2018-06-12T05:42:41.708Z,18.44
2018-06-12T05:43:22.270Z,18.47
2018-06-12T05:44:02.831Z,18.47
2018-06-12T05:44:43.382Z,18.45
2018-06-12T05:45:23.955Z,18.45
2018-06-12T05:46:04.567Z,18.38
2018-06-12T05:46:45.147Z,18.44
2018-06-12T05:47:25.663Z,18.47
2018-06-12T05:48:06.230Z,18.58
2018-06-12T05:48:46.800Z,18.55
2018-06-12T05:49:27.383Z,18.65
2018-06-12T05:50:07.951Z,18.77
2018-06-12T05:50:48.511Z,18.77
2018-06-12T05:51:29.074Z,18.9
2018-06-12T05:52:09.655Z,19.04
2018-06-12T05:52:50.214Z,19.08
2018-06-12T05:53:30.799Z,19.27
2018-06-12T05:54:11.397Z,19.47
2018-06-12T05:54:51.939Z,19.62
2018-06-12T05:55:32.497Z,19.63
2018-06-12T05:56:13.071Z,19.79
2018-06-12T05:56:53.653Z,19.85
2018-06-12T05:57:34.222Z,19.95
2018-06-12T05:58:14.824Z,19.89
2018-06-12T05:58:55.398Z,19.88
2018-06-12T05:59:35.978Z,19.96
2018-06-12T06:00:16.548Z,20
2018-06-12T06:00:57.126Z,20.03
2018-06-12T06:01:37.688Z,20.24
2018-06-12T06:02:18.266Z,20.21
2018-06-12T06:02:58.822Z,20.32
2018-06-12T06:03:39.402Z,20.39
2018-06-12T06:04:19.950Z,20.4
2018-06-12T06:05:00.532Z,20.52
2018-06-12T06:05:41.090Z,20.43
2018-06-12T06:06:21.653Z,20.62
2018-06-12T06:07:02.206Z,20.77
2018-06-12T06:07:42.768Z,20.84
2018-06-12T06:08:23.424Z,20.88
2018-06-12T06:09:03.996Z,20.87
2018-06-12T06:09:44.565Z,20.95
2018-06-12T06:10:25.117Z,21.02
2018-06-12T06:11:05.690Z,21.09
2018-06-12T06:11:46.256Z,21.03
2018-06-12T06:12:26.856Z,21.05
2018-06-12T06:13:07.455Z,21.06
2018-06-12T06:13:48.020Z,20.97
2018-06-12T06:14:28.579Z,20.96
2018-06-12T06:15:09.143Z,21
2018-06-12T06:15:49.778Z,20.93
2018-06-12T06:16:30.375Z,20.96
2018-06-12T06:17:10.944Z,20.82
2018-06-12T06:17:51.510Z,20.75
2018-06-12T06:18:32.122Z,20.7
2018-06-12T06:19:12.684Z,20.52
2018-06-12T06:19:53.238Z,20.41
2018-06-12T06:20:33.815Z,20.29
2018-06-12T06:21:14.364Z,20.28
2018-06-12T06:21:54.961Z,20.31
2018-06-12T06:22:35.543Z,20.21
2018-06-12T06:23:16.082Z,20.31
2018-06-12T06:23:56.644Z,20.26
2018-06-12T06:24:37.200Z,20.24
2018-06-12T06:25:17.769Z,20.24
2018-06-12T06:25:58.306Z,20.34
2018-06-12T06:26:38.880Z,20.28
2018-06-12T06:27:19.433Z,20.19
2018-06-12T06:28:00.008Z,20.25
2018-06-12T06:28:40.623Z,20.06
2018-06-12T06:29:21.238Z,20.07
2018-06-12T06:30:02.565Z,19.94
2018-06-12T06:30:43.128Z,19.96
2018-06-12T06:31:23.715Z,19.99
2018-06-12T06:32:04.267Z,19.92
2018-06-12T06:32:44.879Z,20.07
2018-06-12T06:33:25.431Z,19.99
2018-06-12T06:34:06.007Z,19.88
2018-06-12T06:34:46.576Z,19.88
2018-06-12T06:35:27.142Z,19.89
2018-06-12T06:36:07.743Z,19.86
2018-06-12T06:36:48.319Z,19.95
2018-06-12T06:37:28.879Z,19.88
2018-06-12T06:38:09.459Z,19.76
2018-06-12T06:38:50.070Z,19.82
2018-06-12T06:39:30.639Z,19.76
2018-06-12T06:40:11.196Z,19.7
2018-06-12T06:40:51.909Z,19.74
2018-06-12T06:41:32.505Z,19.92
2018-06-12T06:42:13.065Z,20.04
2018-06-12T06:42:53.630Z,19.89
2018-06-12T06:43:34.208Z,20.06
2018-06-12T06:44:14.777Z,20.16
2018-06-12T06:44:55.334Z,20.13
2018-06-12T06:45:35.897Z,20.34
2018-06-12T06:46:16.462Z,20.28
2018-06-12T06:46:57.049Z,20.39
2018-06-12T06:47:37.613Z,20.36
2018-06-12T06:48:18.190Z,20.37
2018-06-12T06:48:58.751Z,20.58
2018-06-12T06:49:39.309Z,20.67
2018-06-12T06:50:19.864Z,20.69
2018-06-12T06:51:00.481Z,20.58
2018-06-12T06:51:41.057Z,20.59
2018-06-12T06:52:21.607Z,20.56
2018-06-12T06:53:02.237Z,20.43
2018-06-12T06:53:42.925Z,20.56
2018-06-12T06:54:23.368Z,20.51
2018-06-12T06:55:03.950Z,20.41
2018-06-12T06:55:44.525Z,20.29
2018-06-12T06:56:25.117Z,20.16
2018-06-12T06:57:05.701Z,20.14
2018-06-12T06:57:46.306Z,20
2018-06-12T06:58:26.925Z,20.03
2018-06-12T06:59:07.522Z,19.96
2018-06-12T06:59:48.077Z,19.85
2018-06-12T07:00:28.628Z,19.74
2018-06-12T07:01:09.193Z,19.52
2018-06-12T07:01:49.722Z,19.62
2018-06-12T07:02:30.297Z,19.54
2018-06-12T07:03:10.853Z,19.55
2018-06-12T07:03:51.426Z,19.48
2018-06-12T07:04:31.975Z,19.59
2018-06-12T07:05:12.579Z,19.62
2018-06-12T07:05:53.143Z,19.67
2018-06-12T07:06:33.826Z,19.94
2018-06-12T07:07:14.355Z,19.89
2018-06-12T07:07:54.917Z,20.14
2018-06-12T07:08:35.469Z,20.29
2018-06-12T07:09:16.075Z,20.28
2018-06-12T07:09:56.637Z,20.32
2018-06-12T07:10:37.201Z,20.32
2018-06-12T07:11:17.818Z,20.36
2018-06-12T07:11:58.408Z,20.28
2018-06-12T07:12:38.962Z,20.1
2018-06-12T07:13:19.520Z,20.03
2018-06-12T07:14:00.146Z,19.94
2018-06-12T07:14:40.720Z,19.91
2018-06-12T07:15:21.316Z,19.85
2018-06-12T07:16:01.897Z,19.81
2018-06-12T07:16:42.467Z,19.81
2018-06-12T07:17:23.234Z,19.76
2018-06-12T07:18:03.808Z,19.64
2018-06-12T07:18:44.366Z,19.7
2018-06-12T07:19:24.957Z,19.73
2018-06-12T07:20:05.514Z,19.81
2018-06-12T07:20:46.075Z,19.74
2018-06-12T07:21:26.645Z,19.82
2018-06-12T07:22:07.230Z,19.89
2018-06-12T07:22:47.886Z,19.91
2018-06-12T07:23:28.456Z,19.86
2018-06-12T07:24:09.018Z,19.79
2018-06-12T07:24:49.576Z,19.79
2018-06-12T07:25:30.141Z,19.73
2018-06-12T07:26:10.694Z,19.79
2018-06-12T07:26:51.326Z,19.74
2018-06-12T07:27:31.873Z,19.86
2018-06-12T07:28:12.460Z,19.77
2018-06-12T07:28:53.025Z,19.86
2018-06-12T07:29:33.577Z,19.91
2018-06-12T07:30:14.144Z,20.02
2018-06-12T07:30:54.709Z,19.99
2018-06-12T07:31:35.261Z,20.14
2018-06-12T07:32:15.819Z,20.1
2018-06-12T07:32:56.376Z,20.22
2018-06-12T07:33:36.941Z,20.32
2018-06-12T07:34:17.551Z,20.29
2018-06-12T07:34:58.079Z,20.21
2018-06-12T07:35:38.642Z,20.18
2018-06-12T07:36:19.243Z,20.1
2018-06-12T07:36:59.802Z,20
2018-06-12T07:37:40.399Z,19.95
2018-06-12T07:38:20.920Z,19.92
2018-06-12T07:39:01.493Z,19.99
2018-06-12T07:39:42.070Z,19.89
2018-06-12T07:40:22.691Z,19.96
2018-06-12T07:41:03.263Z,19.95
2018-06-12T07:41:43.834Z,19.89
2018-06-12T07:42:24.400Z,19.96
2018-06-12T07:43:04.966Z,19.95
2018-06-12T07:43:45.502Z,19.88
2018-06-12T07:44:26.080Z,19.79
2018-06-12T07:45:06.668Z,19.76
2018-06-12T07:45:47.233Z,19.7
2018-06-12T07:46:27.831Z,19.59
2018-06-12T07:47:08.396Z,19.51
2018-06-12T07:47:48.961Z,19.41
2018-06-12T07:48:29.543Z,19.34
2018-06-12T07:49:10.113Z,19.31
2018-06-12T07:49:50.657Z,19.16
2018-06-12T07:50:31.221Z,19.19
2018-06-12T07:51:11.895Z,19.14
2018-06-12T07:51:52.688Z,19.12
2018-06-12T07:52:33.294Z,19.14
2018-06-12T07:53:13.865Z,19.14
2018-06-12T07:53:54.432Z,19.21
2018-06-12T07:54:35.023Z,19.27
2018-06-12T07:55:15.596Z,19.31
2018-06-12T07:55:56.160Z,19.47
2018-06-12T07:56:36.731Z,19.49
2018-06-12T07:57:17.297Z,19.55
2018-06-12T07:57:57.876Z,19.51
2018-06-12T07:58:38.449Z,19.62
2018-06-12T07:59:19.006Z,19.66
2018-06-12T07:59:59.589Z,19.73
2018-06-12T08:00:40.162Z,19.74
2018-06-12T08:01:20.724Z,19.81
2018-06-12T08:02:01.285Z,19.86
2018-06-12T08:02:41.851Z,19.88
2018-06-12T08:03:22.399Z,19.86
2018-06-12T08:04:02.954Z,19.92
2018-06-12T08:04:43.509Z,19.94
2018-06-12T08:05:24.069Z,19.85
2018-06-12T08:06:04.646Z,19.96
2018-06-12T08:06:45.220Z,20.06
2018-06-12T08:07:25.790Z,20.06
2018-06-12T08:08:06.427Z,19.92
2018-06-12T08:08:46.998Z,20.09
2018-06-12T08:09:27.551Z,20.18
2018-06-12T08:10:08.109Z,20.06
2018-06-12T08:10:48.874Z,20.02
2018-06-12T08:11:29.460Z,20.06
2018-06-12T08:12:10.027Z,19.95
2018-06-12T08:12:50.712Z,20.04
2018-06-12T08:13:31.238Z,20.07
2018-06-12T08:14:11.819Z,20.07
2018-06-12T08:14:52.366Z,20.06
2018-06-12T08:15:32.938Z,20.03
2018-06-12T08:16:13.504Z,20.02
2018-06-12T08:16:54.084Z,20.07
2018-06-12T08:17:34.638Z,20.03
2018-06-12T08:18:15.231Z,19.92
2018-06-12T08:18:55.780Z,19.89
2018-06-12T08:19:36.459Z,19.89
2018-06-12T08:20:17.036Z,19.94
2018-06-12T08:20:57.599Z,20.1
2018-06-12T08:21:38.173Z,20.11
2018-06-12T08:22:18.750Z,20.22
2018-06-12T08:22:59.341Z,20.25
2018-06-12T08:23:39.889Z,20.31
2018-06-12T08:24:20.445Z,20.29
2018-06-12T08:25:01.188Z,20.36
2018-06-12T08:25:41.765Z,20.28
2018-06-12T08:26:22.349Z,20.28
2018-06-12T08:27:02.915Z,20.25
2018-06-12T08:27:43.487Z,20.34
2018-06-12T08:28:24.047Z,20.32
2018-06-12T08:29:04.617Z,20.36
2018-06-12T08:29:45.259Z,20.4
2018-06-12T08:30:25.919Z,20.22
2018-06-12T08:31:06.368Z,20.13
2018-06-12T08:31:46.934Z,19.95
2018-06-12T08:32:27.497Z,19.99
2018-06-12T08:33:08.060Z,19.91
2018-06-12T08:33:48.637Z,19.88
2018-06-12T08:34:29.204Z,19.79
2018-06-12T08:35:09.768Z,19.7
2018-06-12T08:35:50.331Z,19.76
2018-06-12T08:36:30.910Z,19.77
2018-06-12T08:37:11.467Z,19.74
2018-06-12T08:37:52.059Z,19.82
2018-06-12T08:38:32.632Z,19.81
2018-06-12T08:39:13.205Z,19.82
2018-06-12T08:39:53.822Z,19.71
2018-06-12T08:40:34.328Z,19.74
2018-06-12T08:41:14.880Z,19.81
2018-06-12T08:41:55.490Z,19.81
2018-06-12T08:42:36.053Z,19.86
2018-06-12T08:43:16.633Z,19.85
2018-06-12T08:43:57.193Z,19.89
2018-06-12T08:44:37.757Z,19.99
2018-06-12T08:45:18.328Z,19.91
2018-06-12T08:45:58.908Z,20.06
2018-06-12T08:46:39.465Z,20.04
2018-06-12T08:47:20.033Z,19.95
2018-06-12T08:48:00.621Z,19.94
2018-06-12T08:48:41.222Z,20
2018-06-12T08:49:21.827Z,19.94
2018-06-12T08:50:02.439Z,19.94
2018-06-12T08:50:42.984Z,19.79
2018-06-12T08:51:23.558Z,19.74